Time;durP1;ratioP1;P1;durP2;ratioP2;P2;SDS_P1;SDS_P2;PMS_P1;PMS_P2;Temp;Humidity;BMP_temperature;BMP_pressure;BME280_temperature;BME280_humidity;BME280_pressure;Samples;Min_cycle;Max_cycle;Signal;HPM_P1;HPM_P2
2022/07/30 00:01:50;;;;;;;8.25;2.78;;;18.90;80.30;;;;;;5036796;28;20253;-89
2022/07/30 00:04:16;;;;;;;14.30;3.00;;;18.80;80.20;;;;;;5037711;28;20569;-89
2022/07/30 00:06:42;;;;;;;10.25;3.17;;;18.70;80.50;;;;;;5037920;28;20183;-89
2022/07/30 00:09:08;;;;;;;8.88;2.65;;;18.70;80.60;;;;;;5038051;28;20638;-89
2022/07/30 00:11:33;;;;;;;9.38;2.53;;;18.70;80.80;;;;;;5037048;28;20225;-89
2022/07/30 00:13:59;;;;;;;4.65;2.63;;;18.70;80.70;;;;;;5037561;28;20263;-89
2022/07/30 00:16:25;;;;;;;7.38;2.35;;;18.70;80.60;;;;;;5037771;28;20554;-89
2022/07/30 00:18:50;;;;;;;7.70;2.38;;;18.70;80.50;;;;;;5037772;28;20222;-90
2022/07/30 00:21:16;;;;;;;5.85;2.58;;;18.70;80.40;;;;;;5037977;28;20226;-90
2022/07/30 00:23:42;;;;;;;10.15;2.60;;;18.70;80.40;;;;;;5037325;28;20290;-89
2022/07/30 00:26:07;;;;;;;6.82;2.67;;;18.80;80.30;;;;;;5037175;28;20192;-89
2022/07/30 00:28:33;;;;;;;4.43;2.40;;;18.70;80.30;;;;;;5055121;28;20211;-89
2022/07/30 00:30:59;;;;;;;11.82;3.22;;;18.60;80.90;;;;;;5037430;28;20226;-89
2022/07/30 00:33:25;;;;;;;8.95;2.80;;;18.60;81.00;;;;;;5037145;28;20658;-88
2022/07/30 00:35:51;;;;;;;4.68;2.42;;;18.60;81.00;;;;;;5035866;28;20215;-88
2022/07/30 00:38:16;;;;;;;6.80;2.80;;;18.60;80.90;;;;;;5035621;28;20264;-89
2022/07/30 00:40:42;;;;;;;9.68;2.65;;;18.50;81.10;;;;;;5053689;28;20333;-88
2022/07/30 00:43:07;;;;;;;6.30;2.88;;;18.50;81.20;;;;;;5035684;28;20203;-88
2022/07/30 00:45:34;;;;;;;7.63;2.38;;;18.60;81.20;;;;;;5035798;28;20196;-89
2022/07/30 00:48:00;;;;;;;9.85;3.15;;;18.50;81.20;;;;;;5036536;28;20190;-88
2022/07/30 00:50:26;;;;;;;4.85;2.50;;;18.60;81.40;;;;;;5036076;28;20640;-87
2022/07/30 00:52:51;;;;;;;8.32;2.58;;;18.60;81.40;;;;;;5035315;28;20176;-87
2022/07/30 00:55:17;;;;;;;8.63;2.85;;;18.60;81.40;;;;;;5035298;28;20223;-87
2022/07/30 00:57:43;;;;;;;10.50;3.17;;;18.60;81.40;;;;;;5035319;28;20226;-87
2022/07/30 01:00:12;;;;;;;8.82;2.97;;;18.60;81.50;;;;;;5035304;28;20176;-87
2022/07/30 01:02:37;;;;;;;9.45;3.15;;;18.60;81.90;;;;;;5035051;28;20203;-87
2022/07/30 01:05:03;;;;;;;7.45;3.13;;;18.50;82.00;;;;;;5035184;28;20192;-87
2022/07/30 01:07:29;;;;;;;5.50;2.63;;;18.40;82.30;;;;;;5053011;28;20222;-87
2022/07/30 01:09:54;;;;;;;9.40;3.15;;;18.30;82.30;;;;;;5054940;28;20172;-87
2022/07/30 01:12:23;;;;;;;7.53;2.97;;;18.30;82.30;;;;;;5039070;28;20606;-87
2022/07/30 01:14:49;;;;;;;12.38;3.10;;;18.30;82.40;;;;;;5039233;28;20196;-87
2022/07/30 01:17:15;;;;;;;11.93;3.50;;;18.40;82.40;;;;;;5038969;28;20271;-87
2022/07/30 01:19:47;;;;;;;6.43;2.95;;;18.40;82.20;;;;;;5038930;28;20709;-87
2022/07/30 01:22:25;;;;;;;8.75;3.60;;;18.30;82.70;;;;;;5038749;28;20191;-87
2022/07/30 01:25:30;;;;;;;6.63;3.15;;;18.10;83.30;;;;;;5056838;28;20246;-87
2022/07/30 01:28:01;;;;;;;11.32;3.60;;;18.00;83.70;;;;;;5016909;28;20183;-87
2022/07/30 01:30:31;;;;;;;8.10;3.45;;;17.80;84.50;;;;;;5056699;28;20164;-87
2022/07/30 01:32:58;;;;;;;10.93;3.85;;;17.80;84.90;;;;;;5039564;28;20160;-87
2022/07/30 01:35:28;;;;;;;8.05;3.50;;;17.80;85.00;;;;;;5038361;28;20216;-87
2022/07/30 01:37:55;;;;;;;8.98;3.90;;;17.70;85.30;;;;;;5039442;28;20223;-87
2022/07/30 01:40:24;;;;;;;8.60;3.92;;;17.60;85.70;;;;;;5039136;28;20183;-87
2022/07/30 01:42:57;;;;;;;10.95;3.92;;;17.50;86.20;;;;;;5056111;28;20196;-87
2022/07/30 01:45:24;;;;;;;9.20;4.25;;;17.50;86.50;;;;;;5038312;28;20192;-87
2022/07/30 01:47:53;;;;;;;14.43;4.43;;;17.40;86.80;;;;;;5038274;28;20267;-87
2022/07/30 01:50:20;;;;;;;12.90;4.60;;;17.40;87.00;;;;;;5055929;28;20540;-87
2022/07/30 01:52:47;;;;;;;9.25;3.85;;;17.40;87.10;;;;;;5038319;28;20214;-87
2022/07/30 01:55:17;;;;;;;9.50;3.75;;;17.50;87.00;;;;;;5038175;28;20196;-87
2022/07/30 01:57:47;;;;;;;12.77;4.57;;;17.50;86.90;;;;;;5038957;28;20165;-87
2022/07/30 02:00:14;;;;;;;9.82;4.28;;;17.40;86.90;;;;;;5038172;28;20168;-87
2022/07/30 02:02:40;;;;;;;10.80;4.35;;;17.30;87.10;;;;;;5038060;28;20204;-87
2022/07/30 02:05:07;;;;;;;9.77;4.05;;;17.30;87.30;;;;;;5055713;28;20187;-87
2022/07/30 02:07:36;;;;;;;9.63;3.83;;;17.30;87.40;;;;;;5055863;28;20176;-87
2022/07/30 02:10:11;;;;;;;11.23;3.95;;;17.30;87.60;;;;;;5038042;28;20303;-87
2022/07/30 02:12:41;;;;;;;10.77;4.15;;;17.20;87.80;;;;;;5055710;28;20219;-87
2022/07/30 02:15:19;;;;;;;12.95;5.30;;;17.20;88.10;;;;;;5037752;28;20200;-87
2022/07/30 02:18:15;;;;;;;9.15;4.78;;;17.10;88.30;;;;;;5055424;28;20549;-87
2022/07/30 02:20:45;;;;;;;14.48;4.45;;;17.10;88.40;;;;;;5036892;28;20171;-87
2022/07/30 02:23:14;;;;;;;10.77;4.97;;;17.10;88.50;;;;;;5037395;28;20230;-86
2022/07/30 02:25:46;;;;;;;7.82;4.78;;;17.20;88.60;;;;;;5037540;28;20195;-87
2022/07/30 02:28:14;;;;;;;14.13;5.20;;;17.10;88.60;;;;;;5055367;28;20167;-87
2022/07/30 02:30:46;;;;;;;12.57;4.35;;;17.00;88.70;;;;;;5037380;28;20661;-87
2022/07/30 02:33:15;;;;;;;11.88;4.82;;;17.00;88.90;;;;;;5055498;28;20168;-87
2022/07/30 02:35:41;;;;;;;9.80;4.57;;;16.90;89.10;;;;;;5037207;28;20219;-86
2022/07/30 02:38:10;;;;;;;9.50;4.50;;;16.90;89.20;;;;;;5037244;28;20184;-86
2022/07/30 02:40:42;;;;;;;11.10;4.30;;;16.90;89.40;;;;;;5037534;28;20272;-87
2022/07/30 02:43:08;;;;;;;10.27;4.65;;;16.90;89.40;;;;;;5054942;28;20658;-87
2022/07/30 02:45:36;;;;;;;14.18;4.70;;;16.90;89.50;;;;;;5036946;28;20196;-86
2022/07/30 02:48:05;;;;;;;12.60;4.70;;;16.90;89.50;;;;;;5037057;28;20172;-87
2022/07/30 02:50:32;;;;;;;7.35;4.40;;;16.90;89.60;;;;;;5037867;28;20172;-87
2022/07/30 02:53:00;;;;;;;7.65;4.22;;;16.80;89.60;;;;;;5037122;28;20608;-86
2022/07/30 02:55:29;;;;;;;9.85;4.95;;;16.80;89.80;;;;;;5036869;28;20200;-86
2022/07/30 02:57:56;;;;;;;11.07;4.30;;;16.80;89.80;;;;;;5036981;28;20218;-87
2022/07/30 03:00:23;;;;;;;11.25;4.25;;;16.80;89.90;;;;;;5037167;28;20584;-86
2022/07/30 03:02:51;;;;;;;9.65;4.05;;;16.80;90.00;;;;;;5036752;28;20286;-87
2022/07/30 03:05:18;;;;;;;12.07;4.78;;;16.70;90.00;;;;;;5037319;28;20241;-87
2022/07/30 03:07:45;;;;;;;10.93;4.40;;;16.70;90.00;;;;;;5036742;28;20172;-87
2022/07/30 03:10:11;;;;;;;12.63;4.95;;;16.80;90.10;;;;;;5054407;28;20176;-86
2022/07/30 03:12:39;;;;;;;13.18;4.38;;;16.80;90.10;;;;;;5037422;28;20214;-86
2022/07/30 03:15:05;;;;;;;7.13;3.95;;;16.80;90.20;;;;;;5036490;28;20199;-86
2022/07/30 03:17:37;;;;;;;6.95;3.95;;;16.80;90.10;;;;;;5054360;28;20172;-87
2022/07/30 03:20:07;;;;;;;10.63;4.00;;;16.80;90.10;;;;;;5036720;28;20547;-87
2022/07/30 03:22:37;;;;;;;10.55;4.18;;;16.90;90.00;;;;;;5054356;28;20658;-87
2022/07/30 03:25:04;;;;;;;15.15;4.65;;;16.90;90.00;;;;;;5054237;28;20619;-87
2022/07/30 03:27:30;;;;;;;8.15;4.05;;;17.00;90.00;;;;;;5036504;28;20168;-87
2022/07/30 03:29:58;;;;;;;9.07;4.65;;;17.10;90.00;;;;;;5036534;28;20172;-87
2022/07/30 03:32:24;;;;;;;8.23;4.10;;;17.00;89.80;;;;;;5036144;28;20194;-87
2022/07/30 03:34:50;;;;;;;7.78;4.55;;;17.00;89.70;;;;;;5054010;28;20207;-87
2022/07/30 03:37:16;;;;;;;15.05;5.28;;;17.00;89.50;;;;;;5036070;28;20263;-87
2022/07/30 03:39:42;;;;;;;10.77;4.88;;;17.00;89.50;;;;;;5036212;28;20664;-88
2022/07/30 03:42:08;;;;;;;14.27;5.55;;;16.90;89.50;;;;;;5036242;28;20588;-87
2022/07/30 03:44:34;;;;;;;7.57;4.13;;;16.90;89.60;;;;;;5036128;28;20574;-87
2022/07/30 03:47:01;;;;;;;12.02;4.68;;;16.90;89.60;;;;;;5035906;28;20183;-87
2022/07/30 03:49:28;;;;;;;7.18;4.30;;;16.90;89.70;;;;;;5036344;28;20179;-87
2022/07/30 03:51:55;;;;;;;10.48;4.25;;;16.90;89.60;;;;;;5035983;28;20209;-87
2022/07/30 03:54:21;;;;;;;14.25;4.20;;;16.90;89.60;;;;;;5035736;28;20199;-87
2022/07/30 03:56:47;;;;;;;14.30;4.63;;;16.90;89.50;;;;;;5035798;28;20260;-87
2022/07/30 03:59:13;;;;;;;9.43;4.15;;;16.90;89.70;;;;;;5053595;28;20188;-87
2022/07/30 04:01:39;;;;;;;13.50;4.57;;;16.80;89.70;;;;;;5053497;28;20168;-87
2022/07/30 04:04:06;;;;;;;11.65;4.78;;;16.80;89.80;;;;;;5035750;28;20183;-87
2022/07/30 04:06:35;;;;;;;10.20;5.07;;;16.80;89.90;;;;;;5035762;28;20191;-87
2022/07/30 04:09:00;;;;;;;12.43;4.88;;;16.80;89.90;;;;;;5035591;28;20230;-87
2022/07/30 04:11:26;;;;;;;12.23;4.97;;;16.70;90.00;;;;;;5053597;28;20168;-87
2022/07/30 04:13:52;;;;;;;11.15;5.20;;;16.70;90.10;;;;;;5053868;28;20184;-87
2022/07/30 04:16:35;;;;;;;8.98;4.65;;;16.80;90.10;;;;;;5035478;28;20180;-87
2022/07/30 04:19:05;;;;;;;8.10;5.15;;;16.80;90.10;;;;;;5035415;28;20190;-87
2022/07/30 04:21:32;;;;;;;11.95;4.72;;;16.70;90.20;;;;;;5035478;28;20179;-87
2022/07/30 04:24:00;;;;;;;9.40;5.05;;;16.70;90.30;;;;;;5035347;28;20291;-87
2022/07/30 04:26:28;;;;;;;13.65;5.00;;;16.70;90.30;;;;;;5035328;28;20176;-87
2022/07/30 04:28:54;;;;;;;8.75;4.70;;;16.70;90.50;;;;;;5035441;28;20176;-87
2022/07/30 04:31:20;;;;;;;9.88;4.65;;;16.70;90.60;;;;;;5053442;28;20203;-87
2022/07/30 04:33:46;;;;;;;13.85;4.78;;;16.70;90.60;;;;;;5035091;28;21012;-87
2022/07/30 04:36:11;;;;;;;8.55;5.07;;;16.70;90.50;;;;;;5035290;28;20646;-87
2022/07/30 04:38:37;;;;;;;11.02;4.78;;;16.70;90.50;;;;;;5035408;28;20274;-87
2022/07/30 04:41:03;;;;;;;12.32;5.47;;;16.70;90.50;;;;;;5035270;28;20211;-87
2022/07/30 04:43:28;;;;;;;9.25;5.43;;;16.70;90.50;;;;;;5035226;28;20219;-87
2022/07/30 04:45:54;;;;;;;8.90;5.05;;;16.70;90.50;;;;;;5038695;28;20192;-87
2022/07/30 04:48:19;;;;;;;8.85;4.63;;;16.70;90.60;;;;;;5039488;28;20175;-87
2022/07/30 04:50:50;;;;;;;12.23;4.82;;;16.80;90.50;;;;;;5039293;28;20646;-87
2022/07/30 04:53:18;;;;;;;10.60;5.28;;;16.80;90.50;;;;;;5039194;28;20172;-87
2022/07/30 04:55:47;;;;;;;8.93;4.75;;;16.80;90.50;;;;;;5039277;28;20195;-87
2022/07/30 04:58:15;;;;;;;9.05;4.50;;;16.80;90.50;;;;;;5057236;28;20249;-86
2022/07/30 05:00:41;;;;;;;8.38;4.57;;;16.80;90.50;;;;;;5056945;28;20176;-86
2022/07/30 05:03:10;;;;;;;7.00;4.43;;;16.80;90.50;;;;;;5039108;28;20203;-87
2022/07/30 05:05:36;;;;;;;8.50;4.50;;;16.80;90.50;;;;;;5056717;28;20199;-87
2022/07/30 05:08:03;;;;;;;12.32;4.88;;;16.80;90.50;;;;;;5039254;28;20180;-86
2022/07/30 05:10:29;;;;;;;10.95;4.38;;;16.70;90.50;;;;;;5038879;28;20182;-87
2022/07/30 05:12:54;;;;;;;7.57;4.55;;;16.80;90.50;;;;;;5038762;28;20271;-87
2022/07/30 05:15:20;;;;;;;8.15;4.43;;;16.80;90.50;;;;;;5038759;28;20196;-87
2022/07/30 05:17:45;;;;;;;12.93;4.28;;;16.80;90.60;;;;;;5038670;28;20696;-87
2022/07/30 05:20:11;;;;;;;5.82;3.92;;;16.80;90.50;;;;;;5056850;28;20225;-87
2022/07/30 05:22:37;;;;;;;9.43;4.43;;;16.70;90.60;;;;;;5038788;28;20247;-87
2022/07/30 05:25:03;;;;;;;6.88;4.45;;;16.80;90.50;;;;;;5056415;28;20219;-87
2022/07/30 05:27:29;;;;;;;9.02;4.15;;;16.80;90.50;;;;;;5038599;28;20176;-87
2022/07/30 05:29:54;;;;;;;15.57;5.57;;;16.80;90.40;;;;;;5038635;28;20182;-87
2022/07/30 05:32:20;;;;;;;9.32;4.70;;;16.80;90.30;;;;;;5056540;28;20176;-87
2022/07/30 05:34:45;;;;;;;10.23;4.03;;;16.90;90.20;;;;;;5038395;28;20246;-87
2022/07/30 05:37:11;;;;;;;6.80;4.00;;;16.90;90.10;;;;;;5038494;28;20186;-87
2022/07/30 05:39:36;;;;;;;9.18;4.10;;;16.90;89.90;;;;;;5038521;28;20587;-87
2022/07/30 05:42:02;;;;;;;12.48;3.88;;;16.90;89.80;;;;;;5038225;28;20231;-87
2022/07/30 05:44:27;;;;;;;5.88;3.70;;;17.00;89.70;;;;;;5038313;28;20203;-87
2022/07/30 05:46:53;;;;;;;5.55;3.63;;;17.00;89.60;;;;;;5038228;28;20179;-87
2022/07/30 05:49:18;;;;;;;8.18;3.85;;;17.00;89.60;;;;;;5038288;28;20175;-87
2022/07/30 05:51:45;;;;;;;8.07;3.80;;;17.10;89.50;;;;;;5038441;28;20191;-87
2022/07/30 05:54:10;;;;;;;11.32;3.92;;;17.10;89.50;;;;;;5038060;28;20537;-87
2022/07/30 05:56:36;;;;;;;7.07;3.50;;;17.20;89.40;;;;;;5055997;28;20179;-87
2022/07/30 05:59:02;;;;;;;9.63;3.83;;;17.20;89.40;;;;;;5038002;28;20250;-87
2022/07/30 06:01:27;;;;;;;8.05;3.22;;;17.20;89.20;;;;;;5056010;28;20172;-87
2022/07/30 06:03:53;;;;;;;12.52;3.97;;;17.20;88.80;;;;;;5055656;28;20204;-86
2022/07/30 06:06:18;;;;;;;6.97;3.90;;;17.30;88.50;;;;;;5055979;28;20591;-87
2022/07/30 06:08:44;;;;;;;10.57;3.67;;;17.30;88.30;;;;;;5038015;28;20199;-87
2022/07/30 06:11:10;;;;;;;11.20;3.60;;;17.30;88.00;;;;;;5037692;28;20550;-87
2022/07/30 06:13:36;;;;;;;7.90;3.60;;;17.40;88.10;;;;;;5037838;28;20184;-87
2022/07/30 06:16:02;;;;;;;8.30;3.40;;;17.40;87.90;;;;;;5037646;28;20200;-87
2022/07/30 06:18:28;;;;;;;5.45;3.00;;;17.50;87.80;;;;;;5055492;28;20179;-87
2022/07/30 06:20:54;;;;;;;6.07;2.90;;;17.60;87.70;;;;;;5037651;28;20592;-87
2022/07/30 06:23:20;;;;;;;6.50;3.40;;;17.60;87.80;;;;;;5055457;28;20192;-87
2022/07/30 06:25:47;;;;;;;6.47;3.42;;;17.70;87.80;;;;;;5037809;28;20214;-87
2022/07/30 06:28:13;;;;;;;7.35;3.40;;;17.70;87.50;;;;;;5055555;28;20537;-87
2022/07/30 06:30:39;;;;;;;9.32;3.85;;;17.70;87.30;;;;;;5037861;28;20544;-87
2022/07/30 06:33:05;;;;;;;6.57;3.40;;;17.70;87.20;;;;;;5055403;28;20255;-87
2022/07/30 06:35:33;;;;;;;11.55;3.47;;;17.80;87.30;;;;;;5037382;28;20222;-87
2022/07/30 06:37:59;;;;;;;6.38;2.72;;;17.80;86.90;;;;;;5037511;28;20242;-87
2022/07/30 06:40:24;;;;;;;8.80;2.88;;;17.90;86.60;;;;;;5037449;28;20188;-87
2022/07/30 06:42:50;;;;;;;10.50;2.83;;;18.00;86.30;;;;;;5055059;28;20588;-87
2022/07/30 06:45:16;;;;;;;8.65;3.42;;;18.00;86.20;;;;;;5055211;28;20265;-87
2022/07/30 06:47:41;;;;;;;4.32;3.13;;;18.00;85.80;;;;;;5055187;28;20172;-87
2022/07/30 06:50:07;;;;;;;12.55;3.83;;;18.00;85.60;;;;;;5055160;28;20164;-87
2022/07/30 06:52:33;;;;;;;6.53;3.03;;;18.10;85.50;;;;;;5037244;28;20646;-87
2022/07/30 06:54:59;;;;;;;7.68;3.45;;;18.10;85.40;;;;;;5037217;28;20196;-87
2022/07/30 06:57:24;;;;;;;13.77;3.28;;;18.20;85.50;;;;;;5037111;28;20183;-87
2022/07/30 06:59:50;;;;;;;8.55;3.10;;;18.20;85.50;;;;;;5055069;28;20186;-87
2022/07/30 07:02:15;;;;;;;8.00;3.22;;;18.30;85.40;;;;;;5037037;28;20208;-87
2022/07/30 07:04:41;;;;;;;7.22;2.80;;;18.30;85.00;;;;;;5036839;28;20219;-87
2022/07/30 07:07:07;;;;;;;10.13;3.47;;;18.30;85.00;;;;;;5036411;28;20237;-86
2022/07/30 07:09:32;;;;;;;10.60;2.97;;;18.40;85.00;;;;;;5055091;28;20222;-87
2022/07/30 07:11:58;;;;;;;6.70;3.45;;;18.50;84.70;;;;;;5037117;28;20179;-87
2022/07/30 07:14:23;;;;;;;5.55;3.17;;;18.70;84.80;;;;;;5037779;28;20640;-87
2022/07/30 07:16:49;;;;;;;4.90;2.70;;;18.70;84.20;;;;;;5038314;28;20199;-87
2022/07/30 07:19:15;;;;;;;7.78;3.30;;;18.80;84.10;;;;;;5037476;28;20321;-87
2022/07/30 07:21:40;;;;;;;8.63;3.58;;;18.80;83.90;;;;;;5037241;28;20676;-87
2022/07/30 07:24:07;;;;;;;4.75;3.03;;;18.60;83.30;;;;;;5037003;28;20674;-87
2022/07/30 07:26:33;;;;;;;6.72;2.67;;;18.70;83.40;;;;;;5036832;28;20176;-87
2022/07/30 07:28:59;;;;;;;11.95;4.05;;;18.60;83.30;;;;;;5036602;28;20661;-87
2022/07/30 07:31:25;;;;;;;10.18;3.78;;;18.60;83.10;;;;;;5036414;28;20179;-87
2022/07/30 07:33:53;;;;;;;5.95;3.70;;;18.60;83.20;;;;;;5036144;28;20238;-87
2022/07/30 07:36:22;;;;;;;11.43;4.10;;;18.50;83.20;;;;;;5036731;28;20259;-86
2022/07/30 07:38:48;;;;;;;12.00;4.45;;;18.60;83.40;;;;;;5054106;28;20172;-87
2022/07/30 07:41:14;;;;;;;9.05;4.32;;;18.70;83.40;;;;;;5036429;28;20176;-86
2022/07/30 07:43:40;;;;;;;7.57;4.18;;;18.70;83.30;;;;;;5036737;28;20199;-89
2022/07/30 07:46:06;;;;;;;7.30;4.65;;;18.70;83.20;;;;;;5036065;28;20286;-86
2022/07/30 07:48:32;;;;;;;8.43;4.47;;;18.70;83.20;;;;;;5054073;28;20646;-86
2022/07/30 07:50:58;;;;;;;9.70;4.43;;;18.70;83.30;;;;;;5036101;28;20191;-87
2022/07/30 07:53:24;;;;;;;12.38;5.53;;;18.80;82.90;;;;;;5036273;28;20175;-86
2022/07/30 07:55:49;;;;;;;8.77;4.00;;;18.80;82.80;;;;;;5036017;28;20199;-86
2022/07/30 07:58:15;;;;;;;12.38;5.05;;;18.80;82.60;;;;;;5035915;28;20195;-86
2022/07/30 08:00:41;;;;;;;9.80;5.00;;;18.70;83.10;;;;;;5035880;28;20184;-86
2022/07/30 08:03:07;;;;;;;6.68;4.63;;;18.80;83.20;;;;;;5036784;28;20203;-88
2022/07/30 08:05:32;;;;;;;8.25;4.53;;;18.80;83.50;;;;;;5054513;28;20208;-86
2022/07/30 08:07:58;;;;;;;8.13;4.07;;;18.80;83.20;;;;;;5036142;28;20241;-88
2022/07/30 08:10:24;;;;;;;7.25;4.35;;;18.80;83.00;;;;;;5036506;28;20172;-87
2022/07/30 08:12:49;;;;;;;9.63;4.38;;;18.90;83.40;;;;;;5036899;28;20175;-88
2022/07/30 08:15:15;;;;;;;11.18;4.32;;;19.00;83.50;;;;;;5054062;28;20215;-90
2022/07/30 08:17:45;;;;;;;7.75;4.25;;;19.00;83.40;;;;;;5036394;28;20665;-87
2022/07/30 08:20:13;;;;;;;7.82;4.20;;;19.00;83.00;;;;;;5035470;28;20550;-87
2022/07/30 08:22:39;;;;;;;11.10;4.53;;;19.00;82.30;;;;;;5036252;28;20234;-87
2022/07/30 08:25:05;;;;;;;5.93;3.80;;;18.90;82.70;;;;;;5036561;28;20192;-87
2022/07/30 08:27:30;;;;;;;12.02;3.97;;;19.10;83.00;;;;;;5054211;28;20211;-87
2022/07/30 08:29:56;;;;;;;7.97;3.85;;;19.20;83.20;;;;;;5036310;28;20590;-88
2022/07/30 08:32:22;;;;;;;9.05;3.88;;;19.20;82.60;;;;;;5036213;28;20222;-88
2022/07/30 08:34:48;;;;;;;8.10;3.75;;;19.30;82.80;;;;;;5054331;28;20208;-88
2022/07/30 08:37:14;;;;;;;9.07;4.13;;;19.30;82.20;;;;;;5054531;28;20172;-87
2022/07/30 08:39:39;;;;;;;4.78;3.70;;;19.20;82.60;;;;;;5036884;28;20521;-88
2022/07/30 08:42:05;;;;;;;7.25;3.30;;;19.30;82.60;;;;;;5037129;28;20250;-88
2022/07/30 08:44:32;;;;;;;10.18;4.13;;;19.40;82.40;;;;;;5037436;28;20200;-87
2022/07/30 08:47:00;;;;;;;11.25;4.78;;;19.60;82.30;;;;;;5037661;28;20184;-86
2022/07/30 08:49:26;;;;;;;9.80;4.45;;;19.50;81.40;;;;;;5053163;28;20168;-86
2022/07/30 08:51:52;;;;;;;8.77;4.25;;;19.50;81.10;;;;;;5035719;28;20226;-88
2022/07/30 08:54:18;;;;;;;9.88;4.07;;;19.40;82.10;;;;;;5036923;28;20196;-87
2022/07/30 08:56:44;;;;;;;11.80;4.85;;;19.40;81.90;;;;;;5037241;28;20176;-87
2022/07/30 08:59:10;;;;;;;11.73;4.68;;;19.40;82.20;;;;;;5036859;28;20183;-88
2022/07/30 09:01:36;;;;;;;9.73;4.22;;;19.30;82.10;;;;;;5037264;28;20183;-88
2022/07/30 09:04:02;;;;;;;7.18;4.13;;;19.20;82.20;;;;;;5036340;28;20206;-88
2022/07/30 09:06:28;;;;;;;8.63;4.45;;;19.30;82.10;;;;;;5036815;28;20175;-87
2022/07/30 09:08:54;;;;;;;11.18;3.80;;;19.40;82.20;;;;;;5037617;28;20172;-87
2022/07/30 09:11:20;;;;;;;6.82;4.57;;;19.50;81.80;;;;;;5038378;28;20172;-88
2022/07/30 09:13:45;;;;;;;8.60;4.80;;;19.60;80.80;;;;;;5038146;28;20183;-88
2022/07/30 09:16:23;;;;;;;8.18;4.93;;;19.60;80.90;;;;;;5038575;28;20689;-88
2022/07/30 09:18:50;;;;;;;10.82;5.03;;;19.70;80.60;;;;;;5037604;28;20168;-88
2022/07/30 09:21:27;;;;;;;12.88;4.60;;;19.60;81.00;;;;;;5038321;28;20187;-87
2022/07/30 09:24:09;;;;;;;14.30;4.95;;;19.50;81.50;;;;;;5037521;28;20196;-88
2022/07/30 09:26:55;;;;;;;8.25;4.68;;;19.50;82.20;;;;;;5037840;28;20168;-88
2022/07/30 09:29:23;;;;;;;9.27;4.45;;;19.70;82.10;;;;;;5038370;28;20526;-88
2022/07/30 09:31:54;;;;;;;9.38;4.13;;;19.80;81.70;;;;;;5041942;28;20176;-88
2022/07/30 09:34:31;;;;;;;6.65;4.22;;;19.80;81.40;;;;;;5041805;28;20631;-88
2022/07/30 09:36:59;;;;;;;14.10;5.00;;;19.90;81.60;;;;;;5042343;28;20527;-88
2022/07/30 09:39:39;;;;;;;13.10;4.38;;;19.90;80.90;;;;;;5042188;28;20206;-88
2022/07/30 09:42:18;;;;;;;7.38;3.97;;;19.90;81.30;;;;;;5040811;28;20207;-88
2022/07/30 09:44:44;;;;;;;8.43;4.60;;;20.10;81.50;;;;;;5042846;28;20561;-87
2022/07/30 09:47:29;;;;;;;7.57;4.15;;;20.10;81.10;;;;;;5055931;28;20183;-88
2022/07/30 09:50:06;;;;;;;7.15;4.40;;;20.00;80.70;;;;;;5041130;28;20251;-87
2022/07/30 09:52:32;;;;;;;10.55;3.92;;;20.10;81.00;;;;;;5042809;28;20195;-89
2022/07/30 09:54:58;;;;;;;10.60;4.50;;;20.20;80.90;;;;;;5057890;28;20693;-88
2022/07/30 09:57:24;;;;;;;12.27;4.75;;;20.10;80.40;;;;;;5058902;28;20168;-88
2022/07/30 09:59:49;;;;;;;16.20;4.57;;;19.90;80.50;;;;;;5040187;28;20211;-90
2022/07/30 10:02:15;;;;;;;13.10;4.53;;;19.90;80.80;;;;;;5059076;28;20195;-88
2022/07/30 10:04:41;;;;;;;7.15;4.13;;;20.00;80.90;;;;;;5040001;28;20619;-86
2022/07/30 10:07:19;;;;;;;10.63;4.78;;;20.10;80.70;;;;;;5057104;28;20164;-88
2022/07/30 10:09:47;;;;;;;14.65;4.90;;;20.00;80.70;;;;;;5040735;28;20604;-88
2022/07/30 10:12:14;;;;;;;7.97;5.13;;;20.10;80.80;;;;;;5056226;28;20175;-87
2022/07/30 10:14:44;;;;;;;10.93;4.38;;;20.00;80.80;;;;;;5039171;28;20196;-88
2022/07/30 10:17:11;;;;;;;10.80;5.10;;;20.00;81.30;;;;;;5039446;28;20251;-87
2022/07/30 10:19:37;;;;;;;14.02;5.40;;;20.10;81.00;;;;;;5039653;28;20186;-87
2022/07/30 10:22:03;;;;;;;12.48;5.35;;;19.90;81.20;;;;;;5056336;28;20646;-84
2022/07/30 10:24:30;;;;;;;9.60;4.97;;;19.70;81.60;;;;;;5056480;28;20249;-84
2022/07/30 10:26:56;;;;;;;7.53;4.50;;;19.60;82.70;;;;;;5037712;28;20172;-85
2022/07/30 10:29:22;;;;;;;11.77;5.72;;;19.50;83.40;;;;;;5037363;28;20172;-85
2022/07/30 10:31:49;;;;;;;7.88;4.97;;;19.60;83.40;;;;;;5037345;28;20545;-85
2022/07/30 10:34:18;;;;;;;11.05;5.38;;;19.70;83.10;;;;;;5037282;28;20581;-85
2022/07/30 10:36:53;;;;;;;12.68;5.75;;;19.60;82.90;;;;;;5037371;28;20194;-85
2022/07/30 10:39:36;;;;;;;11.15;5.70;;;19.70;83.20;;;;;;5055288;28;20576;-86
2022/07/30 10:42:27;;;;;;;11.80;5.78;;;19.70;82.90;;;;;;5036421;28;20195;-85
2022/07/30 10:45:10;;;;;;;8.93;5.30;;;19.70;83.10;;;;;;5055032;28;20214;-85
2022/07/30 10:47:37;;;;;;;10.48;5.95;;;19.70;83.30;;;;;;5055310;28;20156;-85
2022/07/30 10:50:11;;;;;;;8.98;5.35;;;19.70;83.70;;;;;;5037403;28;20172;-85
2022/07/30 10:52:50;;;;;;;10.60;5.85;;;19.70;84.50;;;;;;5055131;28;20240;-85
2022/07/30 10:55:24;;;;;;;10.60;5.93;;;19.80;84.50;;;;;;5054702;28;20215;-85
2022/07/30 10:58:07;;;;;;;11.60;5.53;;;19.80;84.60;;;;;;5037007;28;20265;-84
2022/07/30 11:00:43;;;;;;;12.02;7.22;;;19.80;84.60;;;;;;5054798;28;20161;-85
2022/07/30 11:03:33;;;;;;;14.63;6.68;;;19.90;84.60;;;;;;5054625;28;20192;-84
2022/07/30 11:06:13;;;;;;;11.02;5.32;;;19.90;85.00;;;;;;5036460;28;20206;-85
2022/07/30 11:08:47;;;;;;;5.72;4.40;;;20.00;84.90;;;;;;5037078;28;20226;-85
2022/07/30 11:11:21;;;;;;;10.43;4.47;;;20.10;84.50;;;;;;5037270;28;20168;-88
2022/07/30 11:13:55;;;;;;;13.82;4.88;;;20.20;83.90;;;;;;5038498;28;20179;-86
2022/07/30 11:16:41;;;;;;;7.03;4.40;;;20.20;83.30;;;;;;5037738;28;20183;-86
2022/07/30 11:19:15;;;;;;;7.13;3.83;;;20.20;83.20;;;;;;5060138;28;20183;-87
2022/07/30 11:21:41;;;;;;;8.38;4.07;;;20.20;82.70;;;;;;5061943;28;20157;-87
2022/07/30 11:24:45;;;;;;;6.15;3.97;;;20.20;82.30;;;;;;5043964;28;21677;-87
2022/07/30 11:27:34;;;;;;;8.23;4.32;;;20.30;81.10;;;;;;5042876;28;20160;-87
2022/07/30 11:30:01;;;;;;;7.80;3.72;;;20.30;80.80;;;;;;5043371;28;20175;-87
2022/07/30 11:32:29;;;;;;;14.07;3.60;;;20.50;80.70;;;;;;5043196;28;20180;-87
2022/07/30 11:35:24;;;;;;;6.90;3.95;;;20.40;79.30;;;;;;5043671;28;20709;-87
2022/07/30 11:37:56;;;;;;;7.47;3.60;;;20.50;79.10;;;;;;5061197;28;20181;-87
2022/07/30 11:40:23;;;;;;;6.43;3.05;;;20.40;78.10;;;;;;5040138;28;20287;-87
2022/07/30 11:42:50;;;;;;;11.73;3.67;;;20.40;77.10;;;;;;5055753;28;20286;-87
2022/07/30 11:45:15;;;;;;;6.75;3.20;;;20.50;76.10;;;;;;5057462;28;20195;-87
2022/07/30 11:47:50;;;;;;;5.28;2.75;;;20.60;74.10;;;;;;5040555;28;20176;-87
2022/07/30 11:50:29;;;;;;;6.18;3.00;;;20.60;73.30;;;;;;5057786;28;20171;-87
2022/07/30 11:53:00;;;;;;;5.72;3.05;;;20.80;74.00;;;;;;5040485;28;20172;-87
2022/07/30 11:55:35;;;;;;;7.65;3.85;;;20.70;72.90;;;;;;5056659;28;20592;-87
2022/07/30 11:58:03;;;;;;;6.43;3.85;;;20.90;74.10;;;;;;5040915;28;20288;-87
2022/07/30 12:00:46;;;;;;;7.45;4.20;;;21.10;75.10;;;;;;5040619;28;20639;-88
2022/07/30 12:03:15;;;;;;;8.35;3.90;;;21.30;74.00;;;;;;5035870;28;20204;-88
2022/07/30 12:05:41;;;;;;;7.88;4.30;;;21.60;73.30;;;;;;5035609;28;20196;-88
2022/07/30 12:08:08;;;;;;;10.32;4.90;;;21.90;73.60;;;;;;5035713;28;20667;-88
2022/07/30 12:10:38;;;;;;;8.85;4.38;;;22.10;73.00;;;;;;5035750;28;20172;-88
2022/07/30 12:13:11;;;;;;;8.55;3.75;;;22.30;72.40;;;;;;5053516;28;20153;-89
2022/07/30 12:15:42;;;;;;;5.82;3.65;;;22.60;72.30;;;;;;5035659;28;20198;-89
2022/07/30 12:18:12;;;;;;;8.27;4.13;;;22.80;71.40;;;;;;5053458;28;20192;-89
2022/07/30 12:20:39;;;;;;;7.82;3.60;;;22.90;70.80;;;;;;5053337;28;20254;-88
2022/07/30 12:23:13;;;;;;;10.27;4.03;;;23.00;69.70;;;;;;5035610;28;20199;-89
2022/07/30 12:25:40;;;;;;;5.50;4.38;;;23.00;69.70;;;;;;5053351;28;20192;-88
2022/07/30 12:28:07;;;;;;;7.22;3.38;;;22.80;68.50;;;;;;5035542;28;20176;-88
2022/07/30 12:30:33;;;;;;;11.63;4.80;;;22.60;69.60;;;;;;5035804;28;20225;-88
2022/07/30 12:32:58;;;;;;;8.32;3.80;;;22.80;70.20;;;;;;5035689;28;20582;-89
2022/07/30 12:35:51;;;;;;;7.47;4.47;;;22.90;69.30;;;;;;5035241;28;20273;-88
2022/07/30 12:38:18;;;;;;;9.02;4.00;;;22.90;68.20;;;;;;5035445;28;20226;-88
2022/07/30 12:41:00;;;;;;;10.95;4.85;;;23.10;69.90;;;;;;5035573;28;20290;-88
2022/07/30 12:44:01;;;;;;;9.45;3.75;;;23.00;69.00;;;;;;5035834;28;20195;-89
2022/07/30 12:46:26;;;;;;;8.48;4.10;;;22.90;69.70;;;;;;4956627;28;20257;-89
2022/07/30 12:48:59;;;;;;;7.18;3.60;;;22.80;69.10;;;;;;5036681;28;20606;-89
2022/07/30 12:51:28;;;;;;;8.15;3.72;;;22.80;67.50;;;;;;5035394;28;20214;-88